sensor_id;sensor_type;location;lat;lon;timestamp;P1;durP1;ratioP1;P2;durP2;ratioP2
51515;SDS011;37603;55.614;37.326;2024-01-27T00:03:43;41.3;;;17.0;;
51515;SDS011;37603;55.614;37.326;2024-01-27T00:09:42;52.4;;;34.9;;
51515;SDS011;37603;55.614;37.326;2024-01-27T00:15:40;47.6;;;33.6;;
51515;SDS011;37603;55.614;37.326;2024-01-27T00:21:39;48.3;;;33.5;;
51515;SDS011;37603;55.614;37.326;2024-01-27T00:27:38;39.9;;;16.9;;
51515;SDS011;37603;55.614;37.326;2024-01-27T00:33:36;50.5;;;32.9;;
51515;SDS011;37603;55.614;37.326;2024-01-27T00:39:35;49.8;;;33.1;;
51515;SDS011;37603;55.614;37.326;2024-01-27T00:45:34;35.5;;;15.0;;
51515;SDS011;37603;55.614;37.326;2024-01-27T00:51:32;33.9;;;14.2;;
51515;SDS011;37603;55.614;37.326;2024-01-27T00:57:31;48.7;;;32.3;;
51515;SDS011;37603;55.614;37.326;2024-01-27T01:03:30;50.6;;;33.4;;
51515;SDS011;37603;55.614;37.326;2024-01-27T01:09:29;33.3;;;15.0;;
51515;SDS011;37603;55.614;37.326;2024-01-27T01:15:27;44.3;;;31.2;;
51515;SDS011;37603;55.614;37.326;2024-01-27T01:21:26;34.7;;;15.5;;
51515;SDS011;37603;55.614;37.326;2024-01-27T01:27:25;32.3;;;14.9;;
51515;SDS011;37603;55.614;37.326;2024-01-27T01:33:23;35.4;;;15.6;;
51515;SDS011;37603;55.614;37.326;2024-01-27T01:39:22;47.1;;;33.3;;
51515;SDS011;37603;55.614;37.326;2024-01-27T01:45:21;46.5;;;33.1;;
51515;SDS011;37603;55.614;37.326;2024-01-27T01:51:19;45.7;;;32.6;;
51515;SDS011;37603;55.614;37.326;2024-01-27T01:57:18;48.8;;;32.6;;
51515;SDS011;37603;55.614;37.326;2024-01-27T02:03:17;32.5;;;15.4;;
51515;SDS011;37603;55.614;37.326;2024-01-27T02:09:16;34.4;;;15.6;;
51515;SDS011;37603;55.614;37.326;2024-01-27T02:15:14;36.7;;;16.2;;
51515;SDS011;37603;55.614;37.326;2024-01-27T02:21:13;51.0;;;33.9;;
51515;SDS011;37603;55.614;37.326;2024-01-27T02:27:11;46.5;;;32.7;;
51515;SDS011;37603;55.614;37.326;2024-01-27T02:33:10;35.6;;;14.5;;
51515;SDS011;37603;55.614;37.326;2024-01-27T02:39:09;34.1;;;14.6;;
51515;SDS011;37603;55.614;37.326;2024-01-27T02:45:08;36.8;;;15.0;;
51515;SDS011;37603;55.614;37.326;2024-01-27T02:51:06;35.8;;;14.8;;
51515;SDS011;37603;55.614;37.326;2024-01-27T02:57:05;43.6;;;30.9;;
51515;SDS011;37603;55.614;37.326;2024-01-27T03:03:04;39.3;;;27.3;;
51515;SDS011;37603;55.614;37.326;2024-01-27T03:09:02;37.0;;;25.3;;
51515;SDS011;37603;55.614;37.326;2024-01-27T03:15:01;25.2;;;11.3;;
51515;SDS011;37603;55.614;37.326;2024-01-27T03:21:00;27.4;;;12.0;;
51515;SDS011;37603;55.614;37.326;2024-01-27T03:26:58;24.9;;;10.7;;
51515;SDS011;37603;55.614;37.326;2024-01-27T03:32:57;31.9;;;22.8;;
51515;SDS011;37603;55.614;37.326;2024-01-27T03:38:56;23.5;;;10.5;;
51515;SDS011;37603;55.614;37.326;2024-01-27T03:44:54;24.5;;;11.4;;
51515;SDS011;37603;55.614;37.326;2024-01-27T03:50:53;22.2;;;10.7;;
51515;SDS011;37603;55.614;37.326;2024-01-27T03:56:52;24.4;;;10.7;;
51515;SDS011;37603;55.614;37.326;2024-01-27T04:02:50;30.4;;;22.7;;
51515;SDS011;37603;55.614;37.326;2024-01-27T04:08:49;23.6;;;10.5;;
51515;SDS011;37603;55.614;37.326;2024-01-27T04:14:48;23.7;;;10.5;;
51515;SDS011;37603;55.614;37.326;2024-01-27T04:20:46;22.1;;;9.4;;
51515;SDS011;37603;55.614;37.326;2024-01-27T04:26:45;23.0;;;9.2;;
51515;SDS011;37603;55.614;37.326;2024-01-27T04:32:44;18.2;;;9.2;;
51515;SDS011;37603;55.614;37.326;2024-01-27T04:38:43;20.4;;;9.4;;
51515;SDS011;37603;55.614;37.326;2024-01-27T04:44:41;25.3;;;19.5;;
51515;SDS011;37603;55.614;37.326;2024-01-27T04:50:40;25.8;;;19.3;;
51515;SDS011;37603;55.614;37.326;2024-01-27T04:56:38;18.5;;;9.4;;
51515;SDS011;37603;55.614;37.326;2024-01-27T05:02:38;19.6;;;9.1;;
51515;SDS011;37603;55.614;37.326;2024-01-27T05:08:36;26.5;;;19.6;;
51515;SDS011;37603;55.614;37.326;2024-01-27T05:14:34;18.1;;;8.8;;
51515;SDS011;37603;55.614;37.326;2024-01-27T05:20:33;21.6;;;9.8;;
51515;SDS011;37603;55.614;37.326;2024-01-27T05:26:32;18.9;;;9.1;;
51515;SDS011;37603;55.614;37.326;2024-01-27T05:32:30;18.2;;;8.9;;
51515;SDS011;37603;55.614;37.326;2024-01-27T05:38:29;17.1;;;8.3;;
51515;SDS011;37603;55.614;37.326;2024-01-27T05:44:28;18.2;;;8.9;;
51515;SDS011;37603;55.614;37.326;2024-01-27T05:50:26;21.4;;;8.3;;
51515;SDS011;37603;55.614;37.326;2024-01-27T05:56:25;18.4;;;8.5;;
51515;SDS011;37603;55.614;37.326;2024-01-27T06:02:24;16.4;;;7.8;;
51515;SDS011;37603;55.614;37.326;2024-01-27T06:08:22;14.2;;;7.4;;
51515;SDS011;37603;55.614;37.326;2024-01-27T06:14:21;20.6;;;16.1;;
51515;SDS011;37603;55.614;37.326;2024-01-27T06:20:20;19.1;;;8.3;;
51515;SDS011;37603;55.614;37.326;2024-01-27T06:26:18;16.7;;;7.5;;
51515;SDS011;37603;55.614;37.326;2024-01-27T06:32:17;16.6;;;8.0;;
51515;SDS011;37603;55.614;37.326;2024-01-27T06:38:16;19.5;;;15.3;;
51515;SDS011;37603;55.614;37.326;2024-01-27T06:44:14;17.2;;;7.8;;
51515;SDS011;37603;55.614;37.326;2024-01-27T06:50:13;19.8;;;8.1;;
51515;SDS011;37603;55.614;37.326;2024-01-27T06:56:12;18.8;;;8.3;;
51515;SDS011;37603;55.614;37.326;2024-01-27T07:02:10;18.9;;;8.4;;
51515;SDS011;37603;55.614;37.326;2024-01-27T07:14:08;16.7;;;7.6;;
51515;SDS011;37603;55.614;37.326;2024-01-27T07:20:07;16.3;;;8.4;;
51515;SDS011;37603;55.614;37.326;2024-01-27T07:26:07;23.4;;;17.6;;
51515;SDS011;37603;55.614;37.326;2024-01-27T07:32:04;24.3;;;9.1;;
51515;SDS011;37603;55.614;37.326;2024-01-27T07:38:03;23.9;;;16.7;;
51515;SDS011;37603;55.614;37.326;2024-01-27T07:44:06;17.6;;;8.9;;
51515;SDS011;37603;55.614;37.326;2024-01-27T07:55:58;27.9;;;19.0;;
51515;SDS011;37603;55.614;37.326;2024-01-27T08:01:58;25.1;;;17.9;;
51515;SDS011;37603;55.614;37.326;2024-01-27T08:07:56;24.7;;;18.5;;
51515;SDS011;37603;55.614;37.326;2024-01-27T08:13:54;20.2;;;9.1;;
51515;SDS011;37603;55.614;37.326;2024-01-27T08:19:53;25.4;;;18.1;;
51515;SDS011;37603;55.614;37.326;2024-01-27T08:25:52;25.5;;;18.5;;
51515;SDS011;37603;55.614;37.326;2024-01-27T08:31:51;20.8;;;9.7;;
51515;SDS011;37603;55.614;37.326;2024-01-27T08:37:49;29.1;;;19.1;;
51515;SDS011;37603;55.614;37.326;2024-01-27T08:43:48;24.9;;;18.8;;
51515;SDS011;37603;55.614;37.326;2024-01-27T08:49:47;28.3;;;19.8;;
51515;SDS011;37603;55.614;37.326;2024-01-27T08:55:45;22.3;;;9.8;;
51515;SDS011;37603;55.614;37.326;2024-01-27T09:01:44;26.9;;;19.7;;
51515;SDS011;37603;55.614;37.326;2024-01-27T09:07:43;25.6;;;14.4;;
51515;SDS011;37603;55.614;37.326;2024-01-27T09:13:41;28.7;;;20.5;;
51515;SDS011;37603;55.614;37.326;2024-01-27T09:19:40;27.3;;;19.4;;
51515;SDS011;37603;55.614;37.326;2024-01-27T09:25:39;28.7;;;21.0;;
51515;SDS011;37603;55.614;37.326;2024-01-27T09:31:38;29.9;;;20.4;;
51515;SDS011;37603;55.614;37.326;2024-01-27T09:37:36;28.6;;;21.5;;
51515;SDS011;37603;55.614;37.326;2024-01-27T09:43:35;24.1;;;11.3;;
51515;SDS011;37603;55.614;37.326;2024-01-27T09:49:34;30.8;;;22.3;;
51515;SDS011;37603;55.614;37.326;2024-01-27T09:55:33;32.7;;;22.6;;
51515;SDS011;37603;55.614;37.326;2024-01-27T10:01:31;29.9;;;21.0;;
51515;SDS011;37603;55.614;37.326;2024-01-27T10:07:30;30.0;;;21.6;;
51515;SDS011;37603;55.614;37.326;2024-01-27T10:13:29;32.6;;;22.9;;
51515;SDS011;37603;55.614;37.326;2024-01-27T10:19:28;33.0;;;22.9;;
51515;SDS011;37603;55.614;37.326;2024-01-27T10:25:26;33.5;;;22.6;;
51515;SDS011;37603;55.614;37.326;2024-01-27T10:31:26;30.8;;;21.4;;
51515;SDS011;37603;55.614;37.326;2024-01-27T10:37:24;29.7;;;21.1;;
51515;SDS011;37603;55.614;37.326;2024-01-27T10:43:22;22.7;;;10.9;;
51515;SDS011;37603;55.614;37.326;2024-01-27T10:49:21;26.2;;;10.9;;
51515;SDS011;37603;55.614;37.326;2024-01-27T10:55:20;22.6;;;11.0;;
51515;SDS011;37603;55.614;37.326;2024-01-27T11:01:18;23.6;;;10.3;;
51515;SDS011;37603;55.614;37.326;2024-01-27T11:07:18;24.9;;;11.3;;
51515;SDS011;37603;55.614;37.326;2024-01-27T11:13:16;24.6;;;11.3;;
51515;SDS011;37603;55.614;37.326;2024-01-27T11:19:16;36.6;;;22.8;;
51515;SDS011;37603;55.614;37.326;2024-01-27T11:25:14;27.3;;;11.7;;
51515;SDS011;37603;55.614;37.326;2024-01-27T11:31:12;23.9;;;11.4;;
51515;SDS011;37603;55.614;37.326;2024-01-27T11:37:11;34.2;;;24.0;;
51515;SDS011;37603;55.614;37.326;2024-01-27T11:43:09;35.5;;;23.6;;
51515;SDS011;37603;55.614;37.326;2024-01-27T11:49:08;28.9;;;11.6;;
51515;SDS011;37603;55.614;37.326;2024-01-27T11:55:07;26.5;;;11.2;;
51515;SDS011;37603;55.614;37.326;2024-01-27T12:01:06;31.8;;;21.8;;
51515;SDS011;37603;55.614;37.326;2024-01-27T12:07:04;25.1;;;11.2;;
51515;SDS011;37603;55.614;37.326;2024-01-27T12:13:03;30.4;;;22.2;;
51515;SDS011;37603;55.614;37.326;2024-01-27T12:19:01;23.3;;;11.0;;
51515;SDS011;37603;55.614;37.326;2024-01-27T12:25:07;33.5;;;23.4;;
51515;SDS011;37603;55.614;37.326;2024-01-27T12:30:59;35.7;;;23.9;;
51515;SDS011;37603;55.614;37.326;2024-01-27T12:36:57;28.0;;;12.6;;
51515;SDS011;37603;55.614;37.326;2024-01-27T12:42:56;35.6;;;13.7;;
51515;SDS011;37603;55.614;37.326;2024-01-27T12:48:55;26.9;;;12.5;;
51515;SDS011;37603;55.614;37.326;2024-01-27T12:54:53;38.1;;;27.5;;
51515;SDS011;37603;55.614;37.326;2024-01-27T13:00:52;30.3;;;14.2;;
51515;SDS011;37603;55.614;37.326;2024-01-27T13:06:51;32.4;;;13.9;;
51515;SDS011;37603;55.614;37.326;2024-01-27T13:12:49;33.3;;;14.1;;
51515;SDS011;37603;55.614;37.326;2024-01-27T13:18:48;35.0;;;14.5;;
51515;SDS011;37603;55.614;37.326;2024-01-27T13:24:47;31.4;;;14.3;;
51515;SDS011;37603;55.614;37.326;2024-01-27T13:30:45;36.5;;;26.3;;
51515;SDS011;37603;55.614;37.326;2024-01-27T13:36:44;29.3;;;13.5;;
51515;SDS011;37603;55.614;37.326;2024-01-27T13:42:43;35.3;;;25.2;;
51515;SDS011;37603;55.614;37.326;2024-01-27T13:48:41;34.1;;;24.1;;
51515;SDS011;37603;55.614;37.326;2024-01-27T13:54:40;28.2;;;12.2;;
51515;SDS011;37603;55.614;37.326;2024-01-27T14:00:38;26.9;;;11.0;;
51515;SDS011;37603;55.614;37.326;2024-01-27T14:06:37;22.9;;;10.0;;
51515;SDS011;37603;55.614;37.326;2024-01-27T14:12:36;26.2;;;11.6;;
51515;SDS011;37603;55.614;37.326;2024-01-27T14:18:35;21.3;;;11.1;;
51515;SDS011;37603;55.614;37.326;2024-01-27T14:24:33;27.3;;;10.7;;
51515;SDS011;37603;55.614;37.326;2024-01-27T14:30:32;28.5;;;11.4;;
51515;SDS011;37603;55.614;37.326;2024-01-27T14:36:31;28.1;;;11.8;;
51515;SDS011;37603;55.614;37.326;2024-01-27T14:42:30;27.0;;;12.0;;
51515;SDS011;37603;55.614;37.326;2024-01-27T14:48:28;26.3;;;11.5;;
51515;SDS011;37603;55.614;37.326;2024-01-27T14:54:27;26.1;;;12.4;;
51515;SDS011;37603;55.614;37.326;2024-01-27T15:00:25;22.4;;;10.5;;
51515;SDS011;37603;55.614;37.326;2024-01-27T15:06:24;25.5;;;10.6;;
51515;SDS011;37603;55.614;37.326;2024-01-27T15:12:22;27.2;;;10.9;;
51515;SDS011;37603;55.614;37.326;2024-01-27T15:18:21;22.7;;;9.9;;
51515;SDS011;37603;55.614;37.326;2024-01-27T15:24:20;22.2;;;10.2;;
51515;SDS011;37603;55.614;37.326;2024-01-27T15:30:19;32.1;;;22.9;;
51515;SDS011;37603;55.614;37.326;2024-01-27T15:36:17;26.6;;;12.2;;
51515;SDS011;37603;55.614;37.326;2024-01-27T15:42:16;27.3;;;11.3;;
51515;SDS011;37603;55.614;37.326;2024-01-27T15:48:14;23.6;;;12.1;;
51515;SDS011;37603;55.614;37.326;2024-01-27T15:54:14;27.3;;;11.3;;
51515;SDS011;37603;55.614;37.326;2024-01-27T16:00:12;38.5;;;26.7;;
51515;SDS011;37603;55.614;37.326;2024-01-27T16:06:11;29.0;;;13.2;;
51515;SDS011;37603;55.614;37.326;2024-01-27T16:12:09;27.1;;;12.3;;
51515;SDS011;37603;55.614;37.326;2024-01-27T16:18:08;27.2;;;11.5;;
51515;SDS011;37603;55.614;37.326;2024-01-27T16:24:06;32.9;;;24.3;;
51515;SDS011;37603;55.614;37.326;2024-01-27T16:30:06;27.9;;;11.5;;
51515;SDS011;37603;55.614;37.326;2024-01-27T16:36:04;27.1;;;11.2;;
51515;SDS011;37603;55.614;37.326;2024-01-27T16:42:03;31.7;;;13.1;;
51515;SDS011;37603;55.614;37.326;2024-01-27T16:48:01;32.8;;;13.4;;
51515;SDS011;37603;55.614;37.326;2024-01-27T16:54:00;29.3;;;12.3;;
51515;SDS011;37603;55.614;37.326;2024-01-27T16:59:58;36.6;;;24.7;;
51515;SDS011;37603;55.614;37.326;2024-01-27T17:05:57;28.4;;;11.9;;
51515;SDS011;37603;55.614;37.326;2024-01-27T17:11:56;30.1;;;12.4;;
51515;SDS011;37603;55.614;37.326;2024-01-27T17:17:54;25.9;;;11.3;;
51515;SDS011;37603;55.614;37.326;2024-01-27T17:23:53;37.2;;;26.8;;
51515;SDS011;37603;55.614;37.326;2024-01-27T17:29:52;27.1;;;12.5;;
51515;SDS011;37603;55.614;37.326;2024-01-27T17:35:50;26.1;;;11.5;;
51515;SDS011;37603;55.614;37.326;2024-01-27T17:41:49;28.9;;;12.3;;
51515;SDS011;37603;55.614;37.326;2024-01-27T17:47:48;29.7;;;12.4;;
51515;SDS011;37603;55.614;37.326;2024-01-27T17:53:46;29.6;;;11.8;;
51515;SDS011;37603;55.614;37.326;2024-01-27T17:59:45;27.1;;;11.6;;
51515;SDS011;37603;55.614;37.326;2024-01-27T18:05:44;27.6;;;11.2;;
51515;SDS011;37603;55.614;37.326;2024-01-27T18:11:42;28.9;;;11.3;;
51515;SDS011;37603;55.614;37.326;2024-01-27T18:17:41;26.3;;;10.7;;
51515;SDS011;37603;55.614;37.326;2024-01-27T18:23:40;29.3;;;13.2;;
51515;SDS011;37603;55.614;37.326;2024-01-27T18:29:38;25.3;;;11.0;;
51515;SDS011;37603;55.614;37.326;2024-01-27T18:35:37;21.5;;;9.7;;
51515;SDS011;37603;55.614;37.326;2024-01-27T18:41:36;22.2;;;10.7;;
51515;SDS011;37603;55.614;37.326;2024-01-27T18:47:34;23.7;;;10.6;;
51515;SDS011;37603;55.614;37.326;2024-01-27T18:53:34;27.2;;;11.9;;
51515;SDS011;37603;55.614;37.326;2024-01-27T18:59:32;77.7;;;29.5;;
51515;SDS011;37603;55.614;37.326;2024-01-27T19:05:30;27.0;;;11.5;;
51515;SDS011;37603;55.614;37.326;2024-01-27T19:11:29;24.7;;;11.1;;
51515;SDS011;37603;55.614;37.326;2024-01-27T19:17:28;24.6;;;10.0;;
51515;SDS011;37603;55.614;37.326;2024-01-27T19:23:26;22.7;;;9.9;;
51515;SDS011;37603;55.614;37.326;2024-01-27T19:29:25;20.5;;;9.7;;
51515;SDS011;37603;55.614;37.326;2024-01-27T19:35:23;22.1;;;10.0;;
51515;SDS011;37603;55.614;37.326;2024-01-27T19:41:22;22.6;;;9.4;;
51515;SDS011;37603;55.614;37.326;2024-01-27T19:47:21;20.6;;;9.9;;
51515;SDS011;37603;55.614;37.326;2024-01-27T19:53:19;19.7;;;8.9;;
51515;SDS011;37603;55.614;37.326;2024-01-27T19:59:18;25.9;;;10.4;;
51515;SDS011;37603;55.614;37.326;2024-01-27T20:11:15;23.9;;;10.1;;
51515;SDS011;37603;55.614;37.326;2024-01-27T20:17:14;24.3;;;10.8;;
51515;SDS011;37603;55.614;37.326;2024-01-27T20:23:13;24.5;;;10.7;;
51515;SDS011;37603;55.614;37.326;2024-01-27T20:29:11;25.3;;;10.2;;
51515;SDS011;37603;55.614;37.326;2024-01-27T20:41:08;26.4;;;10.2;;
51515;SDS011;37603;55.614;37.326;2024-01-27T20:47:07;23.4;;;9.7;;
51515;SDS011;37603;55.614;37.326;2024-01-27T20:53:06;21.2;;;9.9;;
51515;SDS011;37603;55.614;37.326;2024-01-27T20:59:04;22.8;;;10.2;;
51515;SDS011;37603;55.614;37.326;2024-01-27T21:05:03;22.5;;;9.8;;
51515;SDS011;37603;55.614;37.326;2024-01-27T21:11:01;24.2;;;10.3;;
51515;SDS011;37603;55.614;37.326;2024-01-27T21:17:00;25.4;;;10.1;;
51515;SDS011;37603;55.614;37.326;2024-01-27T21:22:59;24.4;;;11.2;;
51515;SDS011;37603;55.614;37.326;2024-01-27T21:28:57;22.6;;;10.5;;
51515;SDS011;37603;55.614;37.326;2024-01-27T21:40:55;26.4;;;11.0;;
51515;SDS011;37603;55.614;37.326;2024-01-27T21:46:53;24.1;;;10.5;;
51515;SDS011;37603;55.614;37.326;2024-01-27T21:52:52;19.6;;;9.7;;
51515;SDS011;37603;55.614;37.326;2024-01-27T21:58:50;23.4;;;9.9;;
51515;SDS011;37603;55.614;37.326;2024-01-27T22:10:48;22.1;;;10.4;;
51515;SDS011;37603;55.614;37.326;2024-01-27T22:16:46;22.3;;;9.7;;
51515;SDS011;37603;55.614;37.326;2024-01-27T22:22:45;21.1;;;9.2;;
51515;SDS011;37603;55.614;37.326;2024-01-27T22:28:43;23.9;;;10.1;;
51515;SDS011;37603;55.614;37.326;2024-01-27T22:34:42;22.8;;;10.1;;
51515;SDS011;37603;55.614;37.326;2024-01-27T22:40:41;21.3;;;9.4;;
51515;SDS011;37603;55.614;37.326;2024-01-27T22:46:39;24.9;;;10.1;;
51515;SDS011;37603;55.614;37.326;2024-01-27T22:52:38;24.8;;;10.3;;
51515;SDS011;37603;55.614;37.326;2024-01-27T22:58:37;21.5;;;9.2;;
51515;SDS011;37603;55.614;37.326;2024-01-27T23:04:35;22.8;;;9.3;;
51515;SDS011;37603;55.614;37.326;2024-01-27T23:10:34;24.8;;;9.9;;
51515;SDS011;37603;55.614;37.326;2024-01-27T23:16:32;21.6;;;9.3;;
51515;SDS011;37603;55.614;37.326;2024-01-27T23:22:31;20.7;;;8.6;;
51515;SDS011;37603;55.614;37.326;2024-01-27T23:28:30;23.8;;;10.0;;
51515;SDS011;37603;55.614;37.326;2024-01-27T23:34:28;29.8;;;10.2;;
51515;SDS011;37603;55.614;37.326;2024-01-27T23:40:27;22.9;;;9.8;;
51515;SDS011;37603;55.614;37.326;2024-01-27T23:46:26;27.9;;;11.7;;
51515;SDS011;37603;55.614;37.326;2024-01-27T23:52:24;25.8;;;10.9;;
51515;SDS011;37603;55.614;37.326;2024-01-27T23:58:23;25.4;;;10.6;;
